createdAt,value
2017-11-03T00:01:01.135Z,31.4
2017-11-03T00:02:02.742Z,31.2
2017-11-03T00:03:04.354Z,31.1
2017-11-03T00:04:06.937Z,30.9
2017-11-03T00:05:08.543Z,30.5
2017-11-03T00:06:10.160Z,29.8
2017-11-03T00:07:11.769Z,29.5
2017-11-03T00:08:13.375Z,29.3
2017-11-03T00:09:14.978Z,29.3
2017-11-03T00:10:16.587Z,29.5
2017-11-03T00:11:18.201Z,29.4
2017-11-03T00:12:19.811Z,29.8
2017-11-03T00:13:21.419Z,29.4
2017-11-03T00:14:23.032Z,29.5
2017-11-03T00:15:24.636Z,29.6
2017-11-03T00:16:26.243Z,29.8
2017-11-03T00:17:27.855Z,29.4
2017-11-03T00:18:29.466Z,29.4
2017-11-03T00:19:31.089Z,29.0
2017-11-03T00:20:32.679Z,29.6
2017-11-03T00:21:34.288Z,28.9
2017-11-03T00:22:35.905Z,28.9
2017-11-03T00:23:37.507Z,28.6
2017-11-03T00:24:39.116Z,29.7
2017-11-03T00:25:40.726Z,29.4
2017-11-03T00:26:42.338Z,29.5
2017-11-03T00:27:43.956Z,28.7
2017-11-03T00:28:45.560Z,28.8
2017-11-03T00:29:47.166Z,29.3
2017-11-03T00:30:48.777Z,28.6
2017-11-03T00:31:50.383Z,28.3
2017-11-03T00:32:51.997Z,29.4
2017-11-03T00:33:53.606Z,29.4
2017-11-03T00:34:55.214Z,29.4
2017-11-03T00:35:56.822Z,29.2
2017-11-03T00:36:58.433Z,28.5
2017-11-03T00:38:00.042Z,28.1
2017-11-03T00:39:01.654Z,28.2
2017-11-03T00:40:03.260Z,27.8
2017-11-03T00:41:04.875Z,28.1
2017-11-03T00:42:06.482Z,28.4
2017-11-03T00:43:08.095Z,28.3
2017-11-03T00:44:09.707Z,28.4
2017-11-03T00:45:11.312Z,28.5
2017-11-03T00:46:12.925Z,28.7
2017-11-03T00:47:14.529Z,29.1
2017-11-03T00:48:16.144Z,28.1
2017-11-03T00:49:17.750Z,28.0
2017-11-03T00:50:19.365Z,27.5
2017-11-03T00:51:20.968Z,27.9
2017-11-03T00:52:22.581Z,27.8
2017-11-03T00:53:24.184Z,28.0
2017-11-03T00:54:25.793Z,28.0
2017-11-03T00:55:27.400Z,28.0
2017-11-03T00:56:29.016Z,27.7
2017-11-03T00:57:30.621Z,27.4
2017-11-03T00:58:32.232Z,27.4
2017-11-03T00:59:33.836Z,27.4
2017-11-03T01:00:35.450Z,27.4
2017-11-03T01:01:37.052Z,27.8
2017-11-03T01:02:38.667Z,28.2
2017-11-03T01:03:40.279Z,28.4
2017-11-03T01:04:41.885Z,28.9
2017-11-03T01:05:43.492Z,29.0
2017-11-03T01:06:45.104Z,29.3
2017-11-03T01:07:46.716Z,30.7
2017-11-03T01:08:48.321Z,30.3
2017-11-03T01:09:49.932Z,30.1
2017-11-03T01:10:51.538Z,30.5
2017-11-03T01:11:53.150Z,30.7
2017-11-03T01:12:54.754Z,30.7
2017-11-03T01:13:56.360Z,30.5
2017-11-03T01:14:57.974Z,30.4
2017-11-03T01:15:59.585Z,29.4
2017-11-03T01:17:01.199Z,29.7
2017-11-03T01:18:02.807Z,29.3
2017-11-03T01:19:04.415Z,29.5
2017-11-03T01:20:06.024Z,28.7
2017-11-03T01:21:07.628Z,28.7
2017-11-03T01:22:09.242Z,29.5
2017-11-03T01:23:10.847Z,29.2
2017-11-03T01:24:12.460Z,29.1
2017-11-03T01:25:14.065Z,28.4
2017-11-03T01:26:15.681Z,27.8
2017-11-03T01:27:17.284Z,28.1
2017-11-03T01:28:18.889Z,28.4
2017-11-03T01:29:20.508Z,28.4
2017-11-03T01:30:22.115Z,28.6
2017-11-03T01:31:23.720Z,28.5
2017-11-03T01:32:25.331Z,27.8
2017-11-03T01:33:26.939Z,27.8
2017-11-03T01:34:28.545Z,28.1
2017-11-03T01:35:30.159Z,29.7
2017-11-03T01:36:31.767Z,29.4
2017-11-03T01:37:33.372Z,29.4
2017-11-03T01:38:34.982Z,28.4
2017-11-03T01:39:36.594Z,29.5
2017-11-03T01:40:38.206Z,29.4
2017-11-03T01:41:39.810Z,30.3
2017-11-03T01:42:41.422Z,30.4
2017-11-03T01:43:43.033Z,30.5
2017-11-03T01:44:44.657Z,32.1
2017-11-03T01:45:46.252Z,31.2
2017-11-03T01:46:47.857Z,30.8
2017-11-03T01:47:49.472Z,31.3
2017-11-03T01:48:51.084Z,31.9
2017-11-03T01:49:52.687Z,31.4
2017-11-03T01:50:54.302Z,30.8
2017-11-03T01:51:55.907Z,30.6
2017-11-03T01:52:57.519Z,30.5
2017-11-03T01:53:59.127Z,30.4
2017-11-03T01:55:00.738Z,29.9
2017-11-03T01:56:02.349Z,29.6
2017-11-03T01:57:03.959Z,29.9
2017-11-03T01:58:05.561Z,30.2
2017-11-03T01:59:07.179Z,29.6
2017-11-03T02:00:08.789Z,30.1
2017-11-03T02:01:10.393Z,29.4
2017-11-03T02:02:12.007Z,29.4
2017-11-03T02:03:13.611Z,29.2
2017-11-03T02:04:15.223Z,28.3
2017-11-03T02:05:16.832Z,28.1
2017-11-03T02:06:18.438Z,27.6
2017-11-03T02:07:20.048Z,27.4
2017-11-03T02:08:21.663Z,27.4
2017-11-03T02:09:23.269Z,27.9
2017-11-03T02:10:24.880Z,27.4
2017-11-03T02:11:26.483Z,27.5
2017-11-03T02:12:28.096Z,27.2
2017-11-03T02:13:29.705Z,27.1
2017-11-03T02:14:31.317Z,26.8
2017-11-03T02:15:32.920Z,26.7
2017-11-03T02:16:34.534Z,26.5
2017-11-03T02:17:36.145Z,26.2
2017-11-03T02:18:37.774Z,26.2
2017-11-03T02:19:39.354Z,26.5
2017-11-03T02:20:40.967Z,25.8
2017-11-03T02:21:42.572Z,26.0
2017-11-03T02:22:44.187Z,25.7
2017-11-03T02:23:45.794Z,26.0
2017-11-03T02:24:47.406Z,26.1
2017-11-03T02:25:49.014Z,25.7
2017-11-03T02:26:50.619Z,25.4
2017-11-03T02:27:52.225Z,25.9
2017-11-03T02:28:53.839Z,26.0
2017-11-03T02:29:55.448Z,28.1
2017-11-03T02:30:57.056Z,27.4
2017-11-03T02:31:58.667Z,26.8
2017-11-03T02:33:00.271Z,26.6
2017-11-03T02:34:01.882Z,26.1
2017-11-03T02:35:03.486Z,26.8
2017-11-03T02:36:05.102Z,26.0
2017-11-03T02:37:06.709Z,27.0
2017-11-03T02:38:08.321Z,28.0
2017-11-03T02:39:09.923Z,28.4
2017-11-03T02:40:11.535Z,27.4
2017-11-03T02:41:13.145Z,27.3
2017-11-03T02:42:14.750Z,27.3
2017-11-03T02:43:16.361Z,26.9
2017-11-03T02:44:17.974Z,26.8
2017-11-03T02:45:19.581Z,26.4
2017-11-03T02:46:21.185Z,26.3
2017-11-03T02:47:22.793Z,25.9
2017-11-03T02:48:24.401Z,25.9
2017-11-03T02:49:26.013Z,25.6
2017-11-03T02:50:27.625Z,25.4
2017-11-03T02:51:29.230Z,25.1
2017-11-03T02:52:30.838Z,25.6
2017-11-03T02:53:32.450Z,25.5
2017-11-03T02:54:34.052Z,24.8
2017-11-03T02:55:35.664Z,25.4
2017-11-03T02:56:37.276Z,23.8
2017-11-03T02:57:38.890Z,23.8
2017-11-03T02:58:40.497Z,21.5
2017-11-03T02:59:42.111Z,23.4
2017-11-03T03:00:43.722Z,24.6
2017-11-03T03:01:45.334Z,25.5
2017-11-03T03:02:46.945Z,25.8
2017-11-03T03:03:48.551Z,26.4
2017-11-03T03:04:50.159Z,26.5
2017-11-03T03:05:51.774Z,26.8
2017-11-03T03:06:53.385Z,27.0
2017-11-03T03:07:54.991Z,27.5
2017-11-03T03:08:56.594Z,27.5
2017-11-03T03:09:58.211Z,28.4
2017-11-03T03:10:59.819Z,28.5
2017-11-03T03:12:01.432Z,28.1
2017-11-03T03:13:03.043Z,26.7
2017-11-03T03:14:04.651Z,28.5
2017-11-03T03:15:06.260Z,31.0
2017-11-03T03:16:07.868Z,31.9
2017-11-03T03:17:09.479Z,32.0
2017-11-03T03:18:11.088Z,30.0
2017-11-03T03:19:12.696Z,30.6
2017-11-03T03:20:14.312Z,30.3
2017-11-03T03:21:15.930Z,29.8
2017-11-03T03:22:17.528Z,29.8
2017-11-03T03:23:19.134Z,29.2
2017-11-03T03:24:20.747Z,29.8
2017-11-03T03:25:22.362Z,29.4
2017-11-03T03:26:23.966Z,29.4
2017-11-03T03:27:25.578Z,29.3
2017-11-03T03:28:27.192Z,29.4
2017-11-03T03:29:28.796Z,29.7
2017-11-03T03:30:31.356Z,29.6
2017-11-03T03:31:42.442Z,29.1
2017-11-03T03:32:45.745Z,28.5
2017-11-03T03:33:47.426Z,29.6
2017-11-03T03:34:49.233Z,29.3
2017-11-03T03:35:50.927Z,29.3
2017-11-03T03:36:52.531Z,28.5
2017-11-03T03:37:54.137Z,28.0
2017-11-03T03:38:55.751Z,29.2
2017-11-03T03:39:57.361Z,30.0
2017-11-03T03:40:58.965Z,29.4
2017-11-03T03:42:00.574Z,28.9
2017-11-03T03:43:02.188Z,28.7
2017-11-03T03:44:03.797Z,28.4
2017-11-03T03:45:05.400Z,28.7
2017-11-03T03:46:07.008Z,29.1
2017-11-03T03:47:08.623Z,28.7
2017-11-03T03:48:10.233Z,28.4
2017-11-03T03:49:11.841Z,28.3
2017-11-03T03:50:14.147Z,28.2
2017-11-03T03:51:15.704Z,28.1
2017-11-03T03:52:17.315Z,28.2
2017-11-03T03:53:18.920Z,27.8
2017-11-03T03:54:20.551Z,27.6
2017-11-03T03:55:22.144Z,27.8
2017-11-03T03:56:23.750Z,27.7
2017-11-03T03:57:25.366Z,27.6
2017-11-03T03:58:26.977Z,27.6
2017-11-03T03:59:28.582Z,27.7
2017-11-03T04:00:30.189Z,27.8
2017-11-03T04:01:31.800Z,27.5
2017-11-03T04:02:33.449Z,27.6
2017-11-03T04:03:35.058Z,27.6
2017-11-03T04:04:37.349Z,27.8
2017-11-03T04:05:38.955Z,27.6
2017-11-03T04:06:40.568Z,27.7
2017-11-03T04:07:42.170Z,27.1
2017-11-03T04:08:43.786Z,27.6
2017-11-03T04:09:45.402Z,27.1
2017-11-03T04:10:47.008Z,26.8
2017-11-03T04:11:48.613Z,27.1
2017-11-03T04:12:50.225Z,27.1
2017-11-03T04:13:51.830Z,27.2
2017-11-03T04:14:53.444Z,27.4
2017-11-03T04:15:55.054Z,27.4
2017-11-03T04:16:56.664Z,27.5
2017-11-03T04:17:58.420Z,27.3
2017-11-03T04:19:00.030Z,27.4
2017-11-03T04:20:02.142Z,27.1
2017-11-03T04:21:03.758Z,27.7
2017-11-03T04:22:05.358Z,27.7
2017-11-03T04:23:06.966Z,28.8
2017-11-03T04:24:08.824Z,28.4
2017-11-03T04:25:10.587Z,28.2
2017-11-03T04:26:12.942Z,28.1
2017-11-03T04:27:14.971Z,29.2
2017-11-03T04:28:18.145Z,29.0
2017-11-03T04:29:20.221Z,29.3
2017-11-03T04:30:21.812Z,29.5
2017-11-03T04:31:23.420Z,30.5
2017-11-03T04:32:25.037Z,30.6
2017-11-03T04:33:26.649Z,30.7
2017-11-03T04:34:28.249Z,30.7
2017-11-03T04:35:29.858Z,30.6
2017-11-03T04:36:31.472Z,30.8
2017-11-03T04:37:33.082Z,31.4
2017-11-03T04:38:34.687Z,32.2
2017-11-03T04:39:36.296Z,31.5
2017-11-03T04:40:37.910Z,33.2
2017-11-03T04:41:39.520Z,33.3
2017-11-03T04:42:41.122Z,33.5
2017-11-03T04:43:42.731Z,33.1
2017-11-03T04:44:44.357Z,32.7
2017-11-03T04:45:45.964Z,32.8
2017-11-03T04:46:47.577Z,32.9
2017-11-03T04:47:49.185Z,34.2
2017-11-03T04:48:50.796Z,34.3
2017-11-03T04:49:52.403Z,33.9
2017-11-03T04:50:54.012Z,32.9
2017-11-03T04:51:55.619Z,33.7
2017-11-03T04:52:57.235Z,33.6
2017-11-03T04:53:58.840Z,33.9
2017-11-03T04:55:00.458Z,33.9
2017-11-03T04:56:02.060Z,34.9
2017-11-03T04:57:03.766Z,36.0
2017-11-03T04:58:05.467Z,36.4
2017-11-03T04:59:07.083Z,37.6
2017-11-03T05:00:08.696Z,38.5
2017-11-03T05:01:10.297Z,39.8
2017-11-03T05:02:11.913Z,39.4
2017-11-03T05:03:13.524Z,39.0
2017-11-03T05:04:15.138Z,38.9
2017-11-03T05:05:16.737Z,38.1
2017-11-03T05:06:18.349Z,38.1
2017-11-03T05:07:19.956Z,38.1
2017-11-03T05:08:21.572Z,38.4
2017-11-03T05:09:23.178Z,37.5
2017-11-03T05:10:24.791Z,37.7
2017-11-03T05:11:26.396Z,37.2
2017-11-03T05:12:28.011Z,37.3
2017-11-03T05:13:29.616Z,38.0
2017-11-03T05:14:31.231Z,37.2
2017-11-03T05:15:32.837Z,37.1
2017-11-03T05:16:34.446Z,36.7
2017-11-03T05:17:36.056Z,36.3
2017-11-03T05:18:37.667Z,36.8
2017-11-03T05:19:39.270Z,36.9
2017-11-03T05:20:41.790Z,36.5
2017-11-03T05:21:42.444Z,36.9
2017-11-03T05:22:44.060Z,36.8
2017-11-03T05:23:45.665Z,36.0
2017-11-03T05:24:47.273Z,35.2
2017-11-03T05:25:48.882Z,34.9
2017-11-03T05:26:50.494Z,34.4
2017-11-03T05:27:52.102Z,34.7
2017-11-03T05:28:53.767Z,35.7
2017-11-03T05:29:55.383Z,36.5
2017-11-03T05:30:56.994Z,36.7
2017-11-03T05:31:58.597Z,37.1
2017-11-03T05:33:00.210Z,36.9
2017-11-03T05:34:01.817Z,37.5
2017-11-03T05:35:03.424Z,36.8
2017-11-03T05:36:05.038Z,37.1
2017-11-03T05:37:06.653Z,36.9
2017-11-03T05:38:08.267Z,37.1
2017-11-03T05:39:09.873Z,36.7
2017-11-03T05:40:12.633Z,36.8
2017-11-03T05:41:14.242Z,35.6
2017-11-03T05:42:16.801Z,35.3
2017-11-03T05:43:17.448Z,36.1
2017-11-03T05:44:19.921Z,35.8
2017-11-03T05:45:22.800Z,35.2
2017-11-03T05:46:23.730Z,35.2
2017-11-03T05:47:27.440Z,35.6
2017-11-03T05:48:31.699Z,35.1
2017-11-03T05:49:34.689Z,36.6
2017-11-03T05:50:36.304Z,39.0
2017-11-03T05:51:38.483Z,40.1
2017-11-03T05:52:40.099Z,39.8
2017-11-03T05:53:41.703Z,38.3
2017-11-03T05:54:43.314Z,38.4
2017-11-03T05:55:44.919Z,38.5
2017-11-03T05:56:46.529Z,38.3
2017-11-03T05:57:48.136Z,37.2
2017-11-03T05:58:49.749Z,37.0
2017-11-03T05:59:51.359Z,36.1
2017-11-03T06:00:52.966Z,36.1
2017-11-03T06:01:54.568Z,35.5
2017-11-03T06:02:56.181Z,35.0
2017-11-03T06:03:57.788Z,35.1
2017-11-03T06:04:59.401Z,35.1
2017-11-03T06:06:01.014Z,37.0
2017-11-03T06:07:02.621Z,35.2
2017-11-03T06:08:04.230Z,34.9
2017-11-03T06:09:05.837Z,35.2
2017-11-03T06:10:07.447Z,37.1
2017-11-03T06:11:09.053Z,37.2
2017-11-03T06:12:10.668Z,36.8
2017-11-03T06:13:12.280Z,37.2
2017-11-03T06:14:13.890Z,37.0
2017-11-03T06:15:15.497Z,36.5
2017-11-03T06:16:17.110Z,36.4
2017-11-03T06:17:18.718Z,38.4
2017-11-03T06:18:20.331Z,40.0
2017-11-03T06:19:21.941Z,39.5
2017-11-03T06:20:23.557Z,39.5
2017-11-03T06:21:25.166Z,39.8
2017-11-03T06:22:26.770Z,39.1
2017-11-03T06:23:28.385Z,38.8
2017-11-03T06:24:29.995Z,38.2
2017-11-03T06:25:31.601Z,37.6
2017-11-03T06:26:33.208Z,38.4
2017-11-03T06:27:34.822Z,38.1
2017-11-03T06:28:36.436Z,37.6
2017-11-03T06:29:38.041Z,37.2
2017-11-03T06:30:39.649Z,37.1
2017-11-03T06:31:41.263Z,36.4
2017-11-03T06:32:42.878Z,36.7
2017-11-03T06:33:44.481Z,36.5
2017-11-03T06:34:46.092Z,36.4
2017-11-03T06:35:47.710Z,35.7
2017-11-03T06:36:49.321Z,34.6
2017-11-03T06:37:50.923Z,35.5
2017-11-03T06:38:52.536Z,33.7
2017-11-03T06:39:54.143Z,34.1
2017-11-03T06:40:55.751Z,33.5
2017-11-03T06:41:57.369Z,33.9
2017-11-03T06:42:58.979Z,34.0
2017-11-03T06:44:00.589Z,34.2
2017-11-03T06:45:02.202Z,33.8
2017-11-03T06:46:03.817Z,34.1
2017-11-03T06:47:05.424Z,33.7
2017-11-03T06:48:07.042Z,33.4
2017-11-03T06:49:08.653Z,32.8
2017-11-03T06:50:10.271Z,34.5
2017-11-03T06:51:11.877Z,35.7
2017-11-03T06:52:13.492Z,36.2
2017-11-03T06:53:15.100Z,37.4
2017-11-03T06:54:16.716Z,36.3
2017-11-03T06:55:18.325Z,37.4
2017-11-03T06:56:19.941Z,36.6
2017-11-03T06:57:21.550Z,35.7
2017-11-03T06:58:23.164Z,36.1
2017-11-03T06:59:24.774Z,37.1
2017-11-03T07:00:26.390Z,36.9
2017-11-03T07:01:28.000Z,38.1
2017-11-03T07:02:29.618Z,37.6
2017-11-03T07:03:31.232Z,37.9
2017-11-03T07:04:32.842Z,39.6
2017-11-03T07:05:34.456Z,39.1
2017-11-03T07:06:36.062Z,37.6
2017-11-03T07:07:37.680Z,37.3
2017-11-03T07:08:39.289Z,39.9
2017-11-03T07:09:40.903Z,39.7
2017-11-03T07:10:42.512Z,39.2
2017-11-03T07:11:44.129Z,43.7
2017-11-03T07:12:45.736Z,43.1
2017-11-03T07:13:47.353Z,44.5
2017-11-03T07:14:48.963Z,44.0
2017-11-03T07:15:50.582Z,41.8
2017-11-03T07:16:52.188Z,41.4
2017-11-03T07:17:53.804Z,40.4
2017-11-03T07:18:55.418Z,41.4
2017-11-03T07:19:57.025Z,41.7
2017-11-03T07:20:58.641Z,41.4
2017-11-03T07:22:00.255Z,40.4
2017-11-03T07:23:01.871Z,40.2
2017-11-03T07:24:03.478Z,41.9
2017-11-03T07:25:05.095Z,41.6
2017-11-03T07:26:06.711Z,40.8
2017-11-03T07:27:08.320Z,42.1
2017-11-03T07:28:09.930Z,41.6
2017-11-03T07:29:11.546Z,41.7
2017-11-03T07:30:13.159Z,42.1
2017-11-03T07:31:14.774Z,41.0
2017-11-03T07:32:16.379Z,42.0
2017-11-03T07:33:17.998Z,41.8
2017-11-03T07:34:19.622Z,41.0
2017-11-03T07:35:21.228Z,40.3
2017-11-03T07:36:22.846Z,40.7
2017-11-03T07:37:24.456Z,40.8
2017-11-03T07:38:26.067Z,40.9
2017-11-03T07:39:27.683Z,41.0
2017-11-03T07:40:29.299Z,41.9
2017-11-03T07:41:30.909Z,42.0
2017-11-03T07:42:32.518Z,42.1
2017-11-03T07:43:34.135Z,42.0
2017-11-03T07:44:35.752Z,41.3
2017-11-03T07:45:37.361Z,40.9
2017-11-03T07:46:38.975Z,40.4
2017-11-03T07:47:40.596Z,40.1
2017-11-03T07:48:42.206Z,40.8
2017-11-03T07:49:43.812Z,39.9
2017-11-03T07:50:45.423Z,40.0
2017-11-03T07:51:47.039Z,39.8
2017-11-03T07:52:48.653Z,40.2
2017-11-03T07:53:50.263Z,43.1
2017-11-03T07:54:51.877Z,43.1
2017-11-03T07:55:53.491Z,42.2
2017-11-03T07:56:55.102Z,40.8
2017-11-03T07:57:56.713Z,41.0
2017-11-03T07:58:58.324Z,42.3
2017-11-03T07:59:59.944Z,42.0
2017-11-03T08:01:01.566Z,42.7
2017-11-03T08:02:03.178Z,42.0
2017-11-03T08:03:04.795Z,41.9
2017-11-03T08:04:06.407Z,42.6
2017-11-03T08:05:08.022Z,42.0
2017-11-03T08:06:09.638Z,41.8
2017-11-03T08:07:11.250Z,42.3
2017-11-03T08:08:12.860Z,42.3
2017-11-03T08:09:14.472Z,42.1
2017-11-03T08:10:16.090Z,44.0
2017-11-03T08:11:17.710Z,45.9
2017-11-03T08:12:19.318Z,47.5
2017-11-03T08:13:20.927Z,46.3
2017-11-03T08:14:22.547Z,48.0
2017-11-03T08:15:24.157Z,46.9
2017-11-03T08:16:25.778Z,45.4
2017-11-03T08:17:27.388Z,43.7
2017-11-03T08:18:29.004Z,42.7
2017-11-03T08:19:30.618Z,42.6
2017-11-03T08:20:32.231Z,42.3
2017-11-03T08:21:33.844Z,44.2
2017-11-03T08:22:35.458Z,43.2
2017-11-03T08:23:37.076Z,42.7
2017-11-03T08:24:38.693Z,44.0
2017-11-03T08:25:40.306Z,45.9
2017-11-03T08:26:41.917Z,44.3
2017-11-03T08:27:43.541Z,44.0
2017-11-03T08:28:45.147Z,43.2
2017-11-03T08:29:46.766Z,43.3
2017-11-03T08:30:48.380Z,43.1
2017-11-03T08:31:49.996Z,43.2
2017-11-03T08:32:51.605Z,46.3
2017-11-03T08:33:53.239Z,45.4
2017-11-03T08:34:54.835Z,45.6
2017-11-03T08:35:56.455Z,47.2
2017-11-03T08:36:58.074Z,47.7
2017-11-03T08:37:59.688Z,47.7
2017-11-03T08:39:01.298Z,48.0
2017-11-03T08:40:02.920Z,49.8
2017-11-03T08:41:04.527Z,50.5
2017-11-03T08:42:06.152Z,49.8
2017-11-03T08:43:07.755Z,51.4
2017-11-03T08:44:09.369Z,50.0
2017-11-03T08:45:10.989Z,48.3
2017-11-03T08:46:12.604Z,51.8
2017-11-03T08:47:14.215Z,52.0
2017-11-03T08:48:15.829Z,50.9
2017-11-03T08:49:17.447Z,50.1
2017-11-03T08:50:19.064Z,53.6
2017-11-03T08:51:20.684Z,53.6
2017-11-03T08:52:22.293Z,54.6
2017-11-03T08:53:23.904Z,58.4
2017-11-03T08:54:25.522Z,56.5
2017-11-03T08:55:27.141Z,56.4
2017-11-03T08:56:28.750Z,58.6
2017-11-03T08:57:30.368Z,57.7
2017-11-03T08:58:31.983Z,58.4
2017-11-03T08:59:33.603Z,57.7
2017-11-03T09:00:35.216Z,57.4
2017-11-03T09:01:36.834Z,58.7
2017-11-03T09:02:38.447Z,57.9
2017-11-03T09:03:40.066Z,59.5
2017-11-03T09:04:41.678Z,57.8
2017-11-03T09:05:43.300Z,58.8
2017-11-03T09:06:44.918Z,67.2
2017-11-03T09:07:46.529Z,65.5
2017-11-03T09:08:48.143Z,64.6
2017-11-03T09:09:49.758Z,63.9
2017-11-03T09:10:51.377Z,64.9
2017-11-03T09:11:52.994Z,66.5
2017-11-03T09:12:54.611Z,62.9
2017-11-03T09:13:56.230Z,61.5
2017-11-03T09:14:57.847Z,66.6
2017-11-03T09:15:59.457Z,62.8
2017-11-03T09:17:01.077Z,64.0
2017-11-03T09:18:02.689Z,63.2
2017-11-03T09:19:04.307Z,65.2
2017-11-03T09:20:05.921Z,67.6
2017-11-03T09:21:07.541Z,67.1
2017-11-03T09:22:09.152Z,65.4
2017-11-03T09:23:10.764Z,64.0
2017-11-03T09:24:12.385Z,63.1
2017-11-03T09:25:14.004Z,69.8
2017-11-03T09:26:15.613Z,69.4
2017-11-03T09:27:17.229Z,67.6
2017-11-03T09:28:18.846Z,66.7
2017-11-03T09:29:20.460Z,65.4
2017-11-03T09:30:22.073Z,69.8
2017-11-03T09:31:23.691Z,68.1
2017-11-03T09:32:25.304Z,69.8
2017-11-03T09:33:26.920Z,71.0
2017-11-03T09:34:28.539Z,70.7
2017-11-03T09:35:30.159Z,68.6
2017-11-03T09:36:31.772Z,69.0
2017-11-03T09:37:33.384Z,69.2
2017-11-03T09:38:35.002Z,70.3
2017-11-03T09:39:36.614Z,71.3
2017-11-03T09:40:38.233Z,67.2
2017-11-03T09:41:39.852Z,71.9
2017-11-03T09:42:41.472Z,72.1
2017-11-03T09:43:43.080Z,69.6
2017-11-03T09:44:44.693Z,71.9
2017-11-03T09:45:46.311Z,70.1
2017-11-03T09:46:47.921Z,70.2
2017-11-03T09:47:49.537Z,67.4
2017-11-03T09:48:51.157Z,70.5
2017-11-03T09:49:52.775Z,73.5
2017-11-03T09:50:54.386Z,72.9
2017-11-03T09:51:56.002Z,73.1
2017-11-03T09:52:57.619Z,72.5
2017-11-03T09:53:59.235Z,74.6
2017-11-03T09:55:00.849Z,72.7
2017-11-03T09:56:02.476Z,74.8
2017-11-03T09:57:04.089Z,73.4
2017-11-03T09:58:05.702Z,71.4
2017-11-03T09:59:07.315Z,74.6
2017-11-03T10:00:08.935Z,76.9
2017-11-03T10:01:10.551Z,76.7
2017-11-03T10:02:12.168Z,72.1
2017-11-03T10:03:13.784Z,76.7
2017-11-03T10:04:15.400Z,77.0
2017-11-03T10:05:17.020Z,76.9
2017-11-03T10:06:18.636Z,78.5
2017-11-03T10:07:20.247Z,78.9
2017-11-03T10:08:21.862Z,79.5
2017-11-03T10:09:23.482Z,80.4
2017-11-03T10:10:25.100Z,74.2
2017-11-03T10:11:26.716Z,81.1
2017-11-03T10:12:28.327Z,79.4
2017-11-03T10:13:29.944Z,79.5
2017-11-03T10:14:31.564Z,79.4
2017-11-03T10:15:33.174Z,80.1
2017-11-03T10:16:34.793Z,81.0
2017-11-03T10:17:36.411Z,78.1
2017-11-03T10:18:38.032Z,77.5
2017-11-03T10:19:39.641Z,80.0
2017-11-03T10:20:41.260Z,81.2
2017-11-03T10:21:42.874Z,78.6
2017-11-03T10:22:44.490Z,82.9
2017-11-03T10:23:46.108Z,82.5
2017-11-03T10:24:47.733Z,84.8
2017-11-03T10:25:49.344Z,83.1
2017-11-03T10:26:50.955Z,83.6
2017-11-03T10:27:52.575Z,83.0
2017-11-03T10:28:54.191Z,84.6
2017-11-03T10:29:55.805Z,85.6
2017-11-03T10:30:57.435Z,84.0
2017-11-03T10:31:59.051Z,85.6
2017-11-03T10:33:00.666Z,84.5
2017-11-03T10:34:02.276Z,84.7
2017-11-03T10:35:03.891Z,82.6
2017-11-03T10:36:05.510Z,84.4
2017-11-03T10:37:07.122Z,84.0
2017-11-03T10:38:08.743Z,84.0
2017-11-03T10:39:10.358Z,81.3
2017-11-03T10:40:11.979Z,81.9
2017-11-03T10:41:13.589Z,82.3
2017-11-03T10:42:15.209Z,85.6
2017-11-03T10:43:16.823Z,86.7
2017-11-03T10:44:18.439Z,87.9
2017-11-03T10:45:20.054Z,88.2
2017-11-03T10:46:21.676Z,86.1
2017-11-03T10:47:23.289Z,84.4
2017-11-03T10:48:24.908Z,85.4
2017-11-03T10:49:26.517Z,85.6
2017-11-03T10:50:28.137Z,86.4
2017-11-03T10:51:29.749Z,85.9
2017-11-03T10:52:31.369Z,85.3
2017-11-03T10:53:32.986Z,85.8
2017-11-03T10:54:34.600Z,82.5
2017-11-03T10:55:36.221Z,86.1
2017-11-03T10:56:37.830Z,86.1
2017-11-03T10:57:39.452Z,85.4
2017-11-03T10:58:41.062Z,88.6
2017-11-03T10:59:42.684Z,83.0
2017-11-03T11:00:44.311Z,88.3
2017-11-03T11:01:45.926Z,88.1
2017-11-03T11:02:47.537Z,85.9
2017-11-03T11:03:49.154Z,86.7
2017-11-03T11:04:50.767Z,88.3
2017-11-03T11:05:52.385Z,86.9
2017-11-03T11:06:54.001Z,86.3
2017-11-03T11:07:55.620Z,86.2
2017-11-03T11:08:57.233Z,87.4
2017-11-03T11:09:58.852Z,86.8
2017-11-03T11:11:00.463Z,88.3
2017-11-03T11:12:02.084Z,89.0
2017-11-03T11:13:03.696Z,87.6
2017-11-03T11:14:05.316Z,88.8
2017-11-03T11:15:06.930Z,89.0
2017-11-03T11:16:08.551Z,89.9
2017-11-03T11:17:10.171Z,89.6
2017-11-03T11:18:11.781Z,91.1
2017-11-03T11:19:13.400Z,88.7
2017-11-03T11:20:15.018Z,90.8
2017-11-03T11:21:16.633Z,91.8
2017-11-03T11:22:18.248Z,91.0
2017-11-03T11:23:19.868Z,92.5
2017-11-03T11:24:21.488Z,92.3
2017-11-03T11:25:23.098Z,90.2
2017-11-03T11:26:24.712Z,93.2
2017-11-03T11:27:26.334Z,97.0
2017-11-03T11:28:27.953Z,97.6
2017-11-03T11:29:29.568Z,99.9
2017-11-03T11:30:31.190Z,100.0
2017-11-03T11:31:32.809Z,100.0
2017-11-03T11:32:34.428Z,100.0
2017-11-03T11:33:36.046Z,100.0
2017-11-03T11:34:37.667Z,100.0
2017-11-03T11:35:39.281Z,100.0
2017-11-03T11:36:40.899Z,100.0
2017-11-03T11:37:42.530Z,100.0
2017-11-03T11:38:44.152Z,100.0
2017-11-03T11:39:45.762Z,100.0
2017-11-03T11:40:47.377Z,100.0
2017-11-03T11:41:49.001Z,100.0
2017-11-03T11:42:50.610Z,100.0
2017-11-03T11:43:52.236Z,100.0
2017-11-03T11:44:53.856Z,100.0
2017-11-03T11:45:55.468Z,100.0
2017-11-03T11:46:57.085Z,100.0
2017-11-03T11:47:58.704Z,100.0
2017-11-03T11:49:00.327Z,99.6
2017-11-03T11:50:01.942Z,100.0
2017-11-03T11:51:03.559Z,100.0
2017-11-03T11:52:05.185Z,100.0
2017-11-03T11:53:06.796Z,100.0
2017-11-03T11:54:08.415Z,100.0
2017-11-03T11:55:10.027Z,100.0
2017-11-03T11:56:11.648Z,100.0
2017-11-03T11:57:13.264Z,100.0
2017-11-03T11:58:14.888Z,100.0
2017-11-03T11:59:16.504Z,100.0
2017-11-03T12:00:18.127Z,100.0
2017-11-03T12:01:19.740Z,100.0
2017-11-03T12:02:21.370Z,100.0
2017-11-03T12:03:22.979Z,100.0
2017-11-03T12:04:24.604Z,100.0
2017-11-03T12:05:26.220Z,100.0
2017-11-03T12:06:27.858Z,100.0
2017-11-03T12:07:29.467Z,100.0
2017-11-03T12:08:31.081Z,100.0
2017-11-03T12:09:32.707Z,100.0
2017-11-03T12:10:34.323Z,100.0
2017-11-03T12:11:35.948Z,100.0
2017-11-03T12:12:37.567Z,100.0
2017-11-03T12:13:39.189Z,100.0
2017-11-03T12:14:40.803Z,100.0
2017-11-03T12:15:42.425Z,100.0
2017-11-03T12:16:44.040Z,100.0
2017-11-03T12:17:45.660Z,100.0
2017-11-03T12:18:47.285Z,100.0
2017-11-03T12:19:48.905Z,100.0
2017-11-03T12:20:50.522Z,100.0
2017-11-03T12:21:52.140Z,100.0
2017-11-03T12:22:53.759Z,100.0
2017-11-03T12:23:55.375Z,100.0
2017-11-03T12:24:56.998Z,100.0
2017-11-03T12:25:58.622Z,100.0
2017-11-03T12:27:00.240Z,100.0
2017-11-03T12:28:01.857Z,100.0
2017-11-03T12:29:03.473Z,100.0
2017-11-03T12:30:05.093Z,100.0
2017-11-03T12:31:06.714Z,100.0
2017-11-03T12:32:08.329Z,100.0
2017-11-03T12:33:09.951Z,100.0
2017-11-03T12:34:11.574Z,100.0
2017-11-03T12:35:13.193Z,100.0
2017-11-03T12:36:14.808Z,100.0
2017-11-03T12:37:16.430Z,100.0
2017-11-03T12:38:18.052Z,100.0
2017-11-03T12:39:19.666Z,100.0
2017-11-03T12:40:21.290Z,100.0
2017-11-03T12:41:22.907Z,100.0
2017-11-03T12:42:24.542Z,100.0
2017-11-03T12:43:26.145Z,100.0
2017-11-03T12:44:27.767Z,100.0
2017-11-03T12:45:29.386Z,100.0
2017-11-03T12:46:31.002Z,100.0
2017-11-03T12:47:32.620Z,100.0
2017-11-03T12:48:34.238Z,100.0
2017-11-03T12:49:35.863Z,100.0
2017-11-03T12:50:37.477Z,100.0
2017-11-03T12:51:39.096Z,100.0
2017-11-03T12:52:40.713Z,100.0
2017-11-03T12:53:42.336Z,100.0
2017-11-03T12:54:43.959Z,100.0
2017-11-03T12:55:45.576Z,100.0
2017-11-03T12:56:47.201Z,100.0
2017-11-03T12:57:48.820Z,100.0
2017-11-03T12:58:50.441Z,100.0
2017-11-03T12:59:52.064Z,100.0
2017-11-03T13:00:53.684Z,100.0
2017-11-03T13:01:55.305Z,100.0
2017-11-03T13:02:56.928Z,100.0
2017-11-03T13:03:58.544Z,100.0
2017-11-03T13:05:00.167Z,100.0
2017-11-03T13:06:01.780Z,100.0
2017-11-03T13:07:03.405Z,100.0
2017-11-03T13:08:05.020Z,100.0
2017-11-03T13:09:06.641Z,100.0
2017-11-03T13:10:08.259Z,100.0
2017-11-03T13:11:09.884Z,100.0
2017-11-03T13:12:11.497Z,100.0
2017-11-03T13:13:13.113Z,100.0
2017-11-03T13:14:14.735Z,100.0
2017-11-03T13:15:16.351Z,100.0
2017-11-03T13:16:17.968Z,100.0
2017-11-03T13:17:19.592Z,100.0
2017-11-03T13:18:21.205Z,100.0
2017-11-03T13:19:22.827Z,100.0
2017-11-03T13:20:24.440Z,100.0
2017-11-03T13:21:26.064Z,100.0
2017-11-03T13:22:27.679Z,100.0
2017-11-03T13:23:29.304Z,100.0
2017-11-03T13:24:30.921Z,100.0
2017-11-03T13:25:32.543Z,100.0
2017-11-03T13:26:34.155Z,100.0
2017-11-03T13:27:35.778Z,100.0
2017-11-03T13:28:37.393Z,100.0
2017-11-03T13:29:39.008Z,100.0
2017-11-03T13:30:40.629Z,100.0
2017-11-03T13:31:42.251Z,100.0
2017-11-03T13:32:43.873Z,100.0
2017-11-03T13:33:45.487Z,100.0
2017-11-03T13:34:47.103Z,100.0
2017-11-03T13:35:48.727Z,100.0
2017-11-03T13:36:50.346Z,100.0